Time;durP1;ratioP1;P1;durP2;ratioP2;P2;SDS_P1;SDS_P2;PMS_P1;PMS_P2;Temp;Humidity;BMP_temperature;BMP_pressure;BME280_temperature;BME280_humidity;BME280_pressure;Samples;Min_cycle;Max_cycle;Signal;HPM_P1;HPM_P2
2023/03/18 00:00:35;;;;;;;;;;;17.40;65.00;;;;;;5007882;28;42842;-88
2023/03/18 00:03:00;;;;;;;;;;;17.30;65.00;;;;;;5007534;28;43729;-86
2023/03/18 00:05:26;;;;;;;;;;;17.40;65.10;;;;;;5007299;28;42989;-88
2023/03/18 00:07:51;;;;;;;;;;;17.30;65.10;;;;;;5021638;28;43443;-87
2023/03/18 00:10:17;;;;;;;;;;;17.40;65.10;;;;;;5027566;28;43095;-89
2023/03/18 00:12:43;;;;;;;;;;;17.40;65.20;;;;;;5026158;28;42915;-88
2023/03/18 00:15:11;;;;;;;;;;;17.40;65.10;;;;;;5027491;28;43004;-88
2023/03/18 00:17:38;;;;;;;;;;;17.40;65.80;;;;;;5024546;28;43910;-88
2023/03/18 00:20:05;;;;;;;;;;;17.30;65.60;;;;;;5024915;28;42977;-88
2023/03/18 00:22:32;;;;;;;;;;;17.40;65.20;;;;;;5023622;28;43087;-87
2023/03/18 00:24:58;;;;;;;;;;;17.50;66.00;;;;;;4989161;28;43029;-88
2023/03/18 00:27:23;;;;;;;;;;;17.40;65.30;;;;;;5006632;28;43544;-88
2023/03/18 00:29:50;;;;;;;;;;;17.50;65.30;;;;;;5006920;28;42938;-88
2023/03/18 00:32:16;;;;;;;;;;;17.50;65.30;;;;;;4990310;28;42967;-88
2023/03/18 00:34:41;;;;;;;;;;;17.50;65.90;;;;;;5013933;28;42932;-87
2023/03/18 00:37:07;;;;;;;;;;;17.50;65.00;;;;;;5026863;28;43009;-88
2023/03/18 00:39:32;;;;;;;;;;;17.50;65.00;;;;;;5008698;28;42958;-88
2023/03/18 00:42:00;;;;;;;;;;;17.50;65.10;;;;;;5016589;28;43401;-88
2023/03/18 00:44:26;;;;;;;;;;;17.40;65.50;;;;;;5020114;28;42981;-87
2023/03/18 00:46:51;;;;;;;;;;;17.50;64.90;;;;;;5008362;28;45016;-87
2023/03/18 00:49:19;;;;;;;;;;;17.60;63.90;;;;;;5025669;28;59672;-87
2023/03/18 00:51:45;;;;;;;;;;;17.60;65.00;;;;;;5023686;28;43549;-90
2023/03/18 00:54:12;;;;;;;;;;;17.50;64.80;;;;;;5026226;28;42877;-89
2023/03/18 00:56:38;;;;;;;;;;;17.40;65.50;;;;;;5026426;28;43010;-90
2023/03/18 00:59:05;;;;;;;;;;;17.60;65.60;;;;;;5026943;28;43007;-89
2023/03/18 01:01:31;;;;;;;;;;;17.60;65.10;;;;;;5016580;28;43131;-88
2023/03/18 01:03:56;;;;;;;;;;;17.60;65.30;;;;;;4988572;28;43755;-89
2023/03/18 01:06:24;;;;;;;;;;;17.60;65.10;;;;;;5006847;28;42856;-89
2023/03/18 01:08:50;;;;;;;;;;;17.70;65.20;;;;;;5006962;28;42815;-88
2023/03/18 01:11:16;;;;;;;;;;;17.60;65.20;;;;;;4989627;28;44813;-89
2023/03/18 01:13:42;;;;;;;;;;;17.60;65.70;;;;;;5006528;28;42840;-89
2023/03/18 01:16:08;;;;;;;;;;;17.60;65.20;;;;;;5006566;28;42847;-90
2023/03/18 01:18:35;;;;;;;;;;;17.70;65.90;;;;;;4992605;28;43155;-84
2023/03/18 01:21:01;;;;;;;;;;;17.60;65.80;;;;;;4999346;28;44520;-91
2023/03/18 01:23:26;;;;;;;;;;;17.60;65.90;;;;;;5024437;28;42931;-89
2023/03/18 01:25:52;;;;;;;;;;;17.50;65.20;;;;;;5024495;28;43459;-90
2023/03/18 01:28:19;;;;;;;;;;;17.60;66.00;;;;;;5014384;28;43065;-90
2023/03/18 01:30:45;;;;;;;;;;;17.70;65.70;;;;;;5024829;28;42975;-90
2023/03/18 01:33:11;;;;;;;;;;;17.60;66.40;;;;;;5025372;28;42973;-88
2023/03/18 01:35:37;;;;;;;;;;;17.70;66.50;;;;;;5024897;28;43061;-90
2023/03/18 01:38:04;;;;;;;;;;;17.60;66.40;;;;;;5025424;28;42941;-90
2023/03/18 01:40:30;;;;;;;;;;;17.70;66.70;;;;;;5021541;28;43283;-85
2023/03/18 01:43:13;;;;;;;;;;;17.50;66.60;;;;;;5005358;28;43284;-85
2023/03/18 01:45:39;;;;;;;;;;;17.60;66.70;;;;;;5017995;28;42932;-86
2023/03/18 01:48:05;;;;;;;;;;;17.60;66.80;;;;;;5025074;28;42926;-85
2023/03/18 01:50:31;;;;;;;;;;;17.60;66.20;;;;;;5015533;28;43500;-79
2023/03/18 01:52:59;;;;;;;;;;;17.50;66.80;;;;;;5022892;28;43027;-86
2023/03/18 01:55:27;;;;;;;;;;;17.60;66.70;;;;;;5016736;28;43834;-79
2023/03/18 01:57:54;;;;;;;;;;;17.50;66.80;;;;;;5014217;28;42987;-80
2023/03/18 02:00:20;;;;;;;;;;;17.60;66.40;;;;;;5024674;28;42952;-81
2023/03/18 02:02:46;;;;;;;;;;;17.50;66.80;;;;;;5024775;28;43027;-80
2023/03/18 02:05:16;;;;;;;;;;;17.60;67.00;;;;;;5024880;28;42964;-85
2023/03/18 02:07:42;;;;;;;;;;;;;;;;;;5024694;28;42977;-88
2023/03/18 02:10:10;;;;;;;;;;;17.60;66.00;;;;;;5024962;28;43405;-87
2023/03/18 02:12:37;;;;;;;;;;;17.70;66.80;;;;;;5024589;28;42867;-87
2023/03/18 02:15:05;;;;;;;;;;;17.60;67.10;;;;;;5007970;28;42920;-82
2023/03/18 02:17:32;;;;;;;;;;;17.60;66.90;;;;;;5016368;28;42940;-87
2023/03/18 02:19:58;;;;;;;;;;;;;;;;;;5004618;28;43776;-80
2023/03/18 02:22:32;;;;;;;;;;;17.60;66.50;;;;;;5007371;28;42909;-88
2023/03/18 02:25:16;;;;;;;;;;;17.50;66.00;;;;;;5024682;28;44406;-89
2023/03/18 02:27:48;;;;;;;;;;;17.50;66.20;;;;;;5018975;28;42889;-85
2023/03/18 02:30:18;;;;;;;;;;;17.50;66.00;;;;;;5019601;28;42984;-84
2023/03/18 02:32:45;;;;;;;;;;;17.40;66.00;;;;;;4985125;28;42929;-85
2023/03/18 02:35:11;;;;;;;;;;;17.50;67.20;;;;;;4984538;28;43491;-77
2023/03/18 02:37:37;;;;;;;;;;;17.60;67.50;;;;;;4984798;28;42886;-89
2023/03/18 02:40:14;;;;;;;;;;;17.40;67.20;;;;;;4985150;28;42974;-89
2023/03/18 02:42:39;;;;;;;;;;;17.50;66.20;;;;;;4984139;28;43174;-87
2023/03/18 02:45:08;;;;;;;;;;;17.60;67.50;;;;;;4985327;28;43040;-84
2023/03/18 02:47:34;;;;;;;;;;;17.80;67.30;;;;;;4983830;28;42966;-82
2023/03/18 02:49:59;;;;;;;;;;;17.60;67.60;;;;;;4985036;28;43032;-82
2023/03/18 02:52:25;;;;;;;;;;;17.60;67.50;;;;;;4985444;28;42897;-87
2023/03/18 02:54:50;;;;;;;;;;;17.60;67.00;;;;;;4967247;28;42980;-85
2023/03/18 02:57:16;;;;;;;;;;;17.60;67.00;;;;;;4964664;28;42915;-87
2023/03/18 02:59:41;;;;;;;;;;;17.50;67.20;;;;;;4964424;28;43019;-84
2023/03/18 03:02:07;;;;;;;;;;;17.40;67.70;;;;;;4983459;28;42866;-82
2023/03/18 03:04:32;;;;;;;;;;;17.60;67.30;;;;;;4982867;28;43173;-84
2023/03/18 03:07:00;;;;;;;;;;;17.80;68.20;;;;;;4985044;28;42867;-86
2023/03/18 03:09:25;;;;;;;;;;;17.50;67.30;;;;;;4985034;28;42915;-87
2023/03/18 03:11:51;;;;;;;;;;;17.50;67.80;;;;;;4984854;28;43430;-85
2023/03/18 03:14:17;;;;;;;;;;;17.40;67.80;;;;;;4983884;28;42965;-88
2023/03/18 03:16:43;;;;;;;;;;;17.40;67.90;;;;;;4984836;28;42942;-89
2023/03/18 03:19:08;;;;;;;;;;;17.60;67.40;;;;;;4984372;28;43159;-86
2023/03/18 03:21:34;;;;;;;;;;;17.60;67.90;;;;;;4984777;28;42959;-88
2023/03/18 03:24:01;;;;;;;;;;;17.50;67.80;;;;;;4984202;28;42913;-88
2023/03/18 03:26:27;;;;;;;;;;;17.40;67.80;;;;;;4985081;28;43056;-84
2023/03/18 03:28:53;;;;;;;;;;;17.30;67.80;;;;;;4983516;28;44099;-79
2023/03/18 03:31:18;;;;;;;;;;;17.50;68.10;;;;;;5001366;28;43089;-89
2023/03/18 03:33:44;;;;;;;;;;;17.80;68.30;;;;;;5021734;28;43048;-88
2023/03/18 03:36:10;;;;;;;;;;;17.70;68.10;;;;;;5013532;28;43028;-87
2023/03/18 03:38:36;;;;;;;;;;;17.50;68.10;;;;;;5027065;28;43532;-90
2023/03/18 03:41:01;;;;;;;;;;;17.50;68.20;;;;;;5008220;28;42935;-90
2023/03/18 03:43:27;;;;;;;;;;;17.40;68.20;;;;;;5004150;28;42822;-87
2023/03/18 03:45:53;;;;;;;;;;;17.40;67.90;;;;;;5005552;28;42945;-87
2023/03/18 03:48:19;;;;;;;;;;;17.60;68.20;;;;;;5004145;28;43541;-84
2023/03/18 03:50:44;;;;;;;;;;;17.40;68.10;;;;;;5004423;28;43194;-85
2023/03/18 03:53:10;;;;;;;;;;;17.50;67.90;;;;;;5004364;28;43614;-87
2023/03/18 03:55:36;;;;;;;;;;;17.60;68.20;;;;;;5017782;28;43136;-88
2023/03/18 03:58:02;;;;;;;;;;;17.50;68.20;;;;;;5023611;28;43033;-88
2023/03/18 04:00:27;;;;;;;;;;;17.50;67.60;;;;;;5005171;28;43039;-85
2023/03/18 04:02:53;;;;;;;;;;;;;;;;;;5008146;28;42953;-84
2023/03/18 04:05:20;;;;;;;;;;;17.60;67.50;;;;;;5005511;28;42946;-81
2023/03/18 04:07:46;;;;;;;;;;;17.50;68.30;;;;;;5021941;28;43428;-89
2023/03/18 04:10:13;;;;;;;;;;;17.50;68.30;;;;;;5026000;28;42980;-87
2023/03/18 04:12:39;;;;;;;;;;;17.50;68.30;;;;;;5026969;28;42928;-83
2023/03/18 04:15:05;;;;;;;;;;;17.50;68.30;;;;;;5025335;28;42866;-89
2023/03/18 04:17:31;;;;;;;;;;;17.50;68.10;;;;;;5026377;28;42905;-83
2023/03/18 04:19:57;;;;;;;;;;;17.50;68.30;;;;;;5026293;28;42984;-87
2023/03/18 04:22:22;;;;;;;;;;;17.50;68.30;;;;;;5019853;28;43049;-81
2023/03/18 04:24:48;;;;;;;;;;;17.50;68.40;;;;;;5020237;28;43005;-81
2023/03/18 04:27:14;;;;;;;;;;;17.40;68.30;;;;;;5026173;28;42814;-89
2023/03/18 04:29:39;;;;;;;;;;;17.60;68.30;;;;;;5020625;28;43007;-81
2023/03/18 04:32:05;;;;;;;;;;;17.50;68.40;;;;;;5005800;28;43001;-89
2023/03/18 04:34:31;;;;;;;;;;;17.40;67.90;;;;;;5006901;28;42985;-89
2023/03/18 04:36:57;;;;;;;;;;;17.60;69.30;;;;;;5009831;28;43031;-83
2023/03/18 04:39:22;;;;;;;;;;;17.60;68.60;;;;;;5026828;28;42973;-84
2023/03/18 04:41:48;;;;;;;;;;;17.60;68.50;;;;;;5024551;28;43056;-84
2023/03/18 04:44:13;;;;;;;;;;;17.40;68.40;;;;;;5017409;28;42922;-81
2023/03/18 04:46:39;;;;;;;;;;;17.50;68.50;;;;;;5006944;28;44067;-86
2023/03/18 04:49:04;;;;;;;;;;;17.60;68.10;;;;;;5006994;28;43001;-88
2023/03/18 04:51:30;;;;;;;;;;;17.50;68.50;;;;;;5007972;28;42864;-87
2023/03/18 04:53:56;;;;;;;;;;;17.50;68.50;;;;;;5006575;28;42993;-85
2023/03/18 04:56:22;;;;;;;;;;;17.50;68.10;;;;;;5006068;28;44747;-85
2023/03/18 04:58:48;;;;;;;;;;;17.60;68.60;;;;;;5005092;28;42826;-86
2023/03/18 05:01:14;;;;;;;;;;;17.60;68.80;;;;;;5007346;28;42997;-80
2023/03/18 05:03:40;;;;;;;;;;;17.60;68.70;;;;;;5023547;28;42965;-81
2023/03/18 05:06:06;;;;;;;;;;;17.60;68.70;;;;;;5013085;28;42925;-81
2023/03/18 05:08:33;;;;;;;;;;;17.50;68.00;;;;;;5013788;28;42769;-85
2023/03/18 05:10:59;;;;;;;;;;;17.60;68.70;;;;;;5025432;28;43519;-83
2023/03/18 05:13:24;;;;;;;;;;;17.60;68.30;;;;;;5013907;28;42806;-84
2023/03/18 05:15:50;;;;;;;;;;;17.50;69.00;;;;;;5025887;28;43727;-84
2023/03/18 05:18:16;;;;;;;;;;;;;;;;;;5007959;28;42945;-84
2023/03/18 05:20:41;;;;;;;;;;;17.60;68.00;;;;;;5025225;28;43721;-83
2023/03/18 05:23:07;;;;;;;;;;;17.50;68.30;;;;;;5025779;28;42861;-84
2023/03/18 05:25:33;;;;;;;;;;;17.60;69.10;;;;;;5025584;28;43849;-84
2023/03/18 05:27:59;;;;;;;;;;;17.40;68.20;;;;;;5025999;28;42807;-84
2023/03/18 05:30:24;;;;;;;;;;;17.50;68.20;;;;;;5014743;28;43831;-84
2023/03/18 05:32:50;;;;;;;;;;;17.60;68.20;;;;;;5018857;28;43105;-84
2023/03/18 05:35:16;;;;;;;;;;;17.50;68.70;;;;;;5007160;28;42877;-85
2023/03/18 05:37:42;;;;;;;;;;;17.60;68.10;;;;;;5005804;28;42909;-84
2023/03/18 05:40:10;;;;;;;;;;;17.50;68.00;;;;;;5007164;28;42882;-81
2023/03/18 05:42:36;;;;;;;;;;;17.60;67.70;;;;;;5022270;28;43047;-85
2023/03/18 05:45:03;;;;;;;;;;;17.50;67.20;;;;;;5016800;28;42985;-82
2023/03/18 05:47:29;;;;;;;;;;;17.40;67.40;;;;;;5015484;28;43049;-84
2023/03/18 05:49:54;;;;;;;;;;;17.10;66.80;;;;;;5015458;28;43443;-82
2023/03/18 05:52:20;;;;;;;;;;;17.20;66.80;;;;;;5013710;28;42912;-85
2023/03/18 05:54:45;;;;;;;;;;;17.30;66.30;;;;;;4994208;28;44659;-83
2023/03/18 05:57:12;;;;;;;;;;;17.20;65.90;;;;;;5017824;28;42920;-84
2023/03/18 05:59:37;;;;;;;;;;;17.00;66.70;;;;;;5015473;28;42848;-83
2023/03/18 06:02:03;;;;;;;;;;;16.90;66.00;;;;;;5015039;28;43052;-83
2023/03/18 06:04:29;;;;;;;;;;;17.00;65.80;;;;;;5015520;28;43042;-84
2023/03/18 06:06:57;;;;;;;;;;;16.80;65.60;;;;;;5016133;28;42918;-84
2023/03/18 06:09:22;;;;;;;;;;;16.90;65.50;;;;;;5015978;28;43710;-82
2023/03/18 06:11:48;;;;;;;;;;;17.00;65.60;;;;;;5019044;28;43171;-83
2023/03/18 06:14:13;;;;;;;;;;;16.90;65.40;;;;;;5016024;28;43724;-83
2023/03/18 06:16:40;;;;;;;;;;;17.00;65.30;;;;;;5015941;28;42783;-84
2023/03/18 06:19:06;;;;;;;;;;;16.80;65.40;;;;;;5012173;28;43061;-84
2023/03/18 06:21:32;;;;;;;;;;;16.90;65.10;;;;;;5011810;28;43065;-80
2023/03/18 06:23:58;;;;;;;;;;;17.00;66.10;;;;;;5013174;28;43440;-82
2023/03/18 06:26:24;;;;;;;;;;;16.70;65.90;;;;;;5013864;28;43268;-81
2023/03/18 06:28:49;;;;;;;;;;;16.80;66.10;;;;;;5018001;28;43925;-81
2023/03/18 06:31:15;;;;;;;;;;;16.90;66.30;;;;;;5016467;28;43075;-80
2023/03/18 06:33:41;;;;;;;;;;;17.10;65.70;;;;;;5015245;28;42900;-82
2023/03/18 06:36:07;;;;;;;;;;;16.70;65.90;;;;;;5008540;28;43007;-81
2023/03/18 06:38:33;;;;;;;;;;;16.90;65.40;;;;;;5005144;28;43666;-80
2023/03/18 06:40:59;;;;;;;;;;;16.90;65.40;;;;;;5015549;28;43009;-79
2023/03/18 06:43:25;;;;;;;;;;;16.80;65.60;;;;;;5014472;28;42918;-85
2023/03/18 06:45:51;;;;;;;;;;;16.80;65.00;;;;;;5013117;28;43093;-82
2023/03/18 06:48:18;;;;;;;;;;;16.50;66.80;;;;;;5024278;28;43380;-82
2023/03/18 06:50:43;;;;;;;;;;;16.20;67.50;;;;;;5006362;28;42973;-84
2023/03/18 06:53:09;;;;;;;;;;;16.10;67.20;;;;;;5018107;28;43625;-81
2023/03/18 06:55:35;;;;;;;;;;;;;;;;;;4993165;28;43017;-83
2023/03/18 06:58:01;;;;;;;;;;;16.00;61.80;;;;;;5016490;28;43181;-84
2023/03/18 07:00:27;;;;;;;;;;;15.90;62.20;;;;;;5014495;28;43034;-85
2023/03/18 07:02:53;;;;;;;;;;;15.80;63.10;;;;;;5013753;28;44413;-84
2023/03/18 07:05:19;;;;;;;;;;;15.70;62.70;;;;;;5012131;28;42994;-85
2023/03/18 07:07:45;;;;;;;;;;;15.60;63.20;;;;;;5015429;28;44406;-85
2023/03/18 07:10:22;;;;;;;;;;;15.30;61.50;;;;;;5011438;28;43066;-85
2023/03/18 07:12:49;;;;;;;;;;;15.40;58.70;;;;;;5012090;28;43459;-84
2023/03/18 07:15:15;;;;;;;;;;;15.20;60.00;;;;;;5013928;28;42799;-84
2023/03/18 07:17:40;;;;;;;;;;;15.30;60.80;;;;;;5012733;28;44522;-85
2023/03/18 07:20:06;;;;;;;;;;;15.00;62.30;;;;;;5015746;28;43304;-84
2023/03/18 07:22:32;;;;;;;;;;;;;;;;;;5011965;28;44396;-84
2023/03/18 07:24:58;;;;;;;;;;;;;;;;;;5014222;28;42953;-84
2023/03/18 07:27:24;;;;;;;;;;;;;;;;;;5012900;28;42911;-82
2023/03/18 07:29:50;;;;;;;;;;;15.40;63.20;;;;;;5022961;28;43146;-84
2023/03/18 07:32:17;;;;;;;;;;;15.50;66.00;;;;;;5021552;28;43430;-84
2023/03/18 07:34:43;;;;;;;;;;;15.60;67.40;;;;;;5023328;28;43093;-81
2023/03/18 07:37:08;;;;;;;;;;;15.80;67.10;;;;;;5023344;28;42991;-82
2023/03/18 07:39:34;;;;;;;;;;;16.00;66.40;;;;;;5023674;28;43010;-83
2023/03/18 07:42:00;;;;;;;;;;;15.90;65.50;;;;;;4999210;28;43702;-81
2023/03/18 07:44:26;;;;;;;;;;;16.10;65.00;;;;;;5008920;28;43011;-81
2023/03/18 07:46:51;;;;;;;;;;;16.00;64.20;;;;;;5007550;28;43748;-82
2023/03/18 07:49:17;;;;;;;;;;;16.00;64.20;;;;;;5020761;28;43205;-81
2023/03/18 07:51:43;;;;;;;;;;;16.00;64.30;;;;;;5018196;28;43539;-81
2023/03/18 07:54:08;;;;;;;;;;;16.00;64.60;;;;;;5026987;28;42991;-82
2023/03/18 07:56:34;;;;;;;;;;;16.00;64.60;;;;;;5007352;28;42877;-82
2023/03/18 07:58:59;;;;;;;;;;;16.10;64.60;;;;;;5017007;28;42945;-81
2023/03/18 08:01:25;;;;;;;;;;;16.00;64.70;;;;;;5027232;28;43045;-81
2023/03/18 08:03:50;;;;;;;;;;;16.20;64.20;;;;;;5015509;28;42906;-82
2023/03/18 08:06:16;;;;;;;;;;;16.10;64.10;;;;;;5007379;28;43369;-79
2023/03/18 08:08:42;;;;;;;;;;;16.20;63.70;;;;;;5008395;28;42902;-81
2023/03/18 08:11:08;;;;;;;;;;;16.00;64.40;;;;;;5013961;28;42918;-82
2023/03/18 08:13:34;;;;;;;;;;;16.00;64.20;;;;;;5014997;28;43162;-82
2023/03/18 08:16:00;;;;;;;;;;;16.10;63.70;;;;;;5017238;28;43574;-83
2023/03/18 08:18:26;;;;;;;;;;;16.00;63.10;;;;;;4996322;28;42909;-83
2023/03/18 08:20:52;;;;;;;;;;;15.90;63.00;;;;;;5016240;28;43071;-83
2023/03/18 08:23:17;;;;;;;;;;;15.70;63.20;;;;;;5015954;28;43154;-84
2023/03/18 08:25:45;;;;;;;;;;;15.70;63.00;;;;;;5015070;28;43636;-83
2023/03/18 08:28:11;;;;;;;;;;;15.80;64.10;;;;;;5015147;28;42959;-85
2023/03/18 08:30:37;;;;;;;;;;;15.70;64.40;;;;;;5015386;28;43540;-82
2023/03/18 08:33:03;;;;;;;;;;;15.90;64.40;;;;;;5021266;28;42916;-81
2023/03/18 08:35:28;;;;;;;;;;;15.80;64.20;;;;;;5003391;28;44633;-80
2023/03/18 08:37:54;;;;;;;;;;;15.60;64.20;;;;;;5009990;28;42993;-81
2023/03/18 08:40:19;;;;;;;;;;;15.90;63.50;;;;;;5012661;28;42989;-80
2023/03/18 08:42:45;;;;;;;;;;;15.90;63.60;;;;;;4991078;28;42970;-80
2023/03/18 08:45:11;;;;;;;;;;;15.90;63.70;;;;;;5006779;28;44522;-79
2023/03/18 08:47:37;;;;;;;;;;;15.90;63.70;;;;;;5006884;28;43127;-80
2023/03/18 08:50:04;;;;;;;;;;;16.00;63.90;;;;;;5014862;28;42984;-80
2023/03/18 08:52:31;;;;;;;;;;;;;;;;;;5008386;28;43022;-80
2023/03/18 08:54:57;;;;;;;;;;;15.90;63.20;;;;;;5002591;28;43681;-80
2023/03/18 08:57:22;;;;;;;;;;;15.70;63.10;;;;;;5015665;28;42900;-81
2023/03/18 08:59:48;;;;;;;;;;;15.80;64.50;;;;;;5007224;28;43561;-80
2023/03/18 09:02:17;;;;;;;;;;;15.90;64.70;;;;;;5006774;28;42978;-80
2023/03/18 09:04:43;;;;;;;;;;;16.20;64.70;;;;;;5005049;28;44648;-79
2023/03/18 09:07:08;;;;;;;;;;;15.80;65.00;;;;;;5006689;28;43067;-80
2023/03/18 09:09:34;;;;;;;;;;;15.60;65.30;;;;;;5006687;28;42890;-78
2023/03/18 09:12:00;;;;;;;;;;;15.50;65.80;;;;;;5009458;28;42946;-80
2023/03/18 09:14:26;;;;;;;;;;;15.60;66.20;;;;;;5015115;28;43513;-79
2023/03/18 09:16:52;;;;;;;;;;;15.60;65.90;;;;;;5006785;28;43069;-78
2023/03/18 09:19:18;;;;;;;;;;;15.90;65.10;;;;;;5018042;28;43164;-80
2023/03/18 09:21:44;;;;;;;;;;;15.80;65.80;;;;;;5006819;28;42917;-79
2023/03/18 09:24:10;;;;;;;;;;;16.00;65.40;;;;;;5008850;28;42990;-79
2023/03/18 09:26:37;;;;;;;;;;;15.80;65.00;;;;;;5013565;28;43516;-79
2023/03/18 09:29:03;;;;;;;;;;;15.80;65.60;;;;;;5014777;28;42960;-79
2023/03/18 09:31:29;;;;;;;;;;;15.70;65.70;;;;;;5015078;28;43125;-80
2023/03/18 09:33:55;;;;;;;;;;;16.00;65.00;;;;;;5013801;28;43117;-78
2023/03/18 09:36:20;;;;;;;;;;;15.90;65.50;;;;;;5015431;28;42905;-79
2023/03/18 09:38:46;;;;;;;;;;;15.80;65.40;;;;;;5015185;28;42856;-79
2023/03/18 09:41:11;;;;;;;;;;;15.90;65.00;;;;;;5014146;28;43083;-78
2023/03/18 09:43:43;;;;;;;;;;;16.10;65.00;;;;;;5015264;28;43644;-79
2023/03/18 09:46:09;;;;;;;;;;;15.80;63.70;;;;;;5015620;28;42960;-79
2023/03/18 09:48:53;;;;;;;;;;;15.80;64.50;;;;;;5015758;28;42913;-79
2023/03/18 09:51:19;;;;;;;;;;;15.90;63.70;;;;;;5017114;28;42993;-83
2023/03/18 09:53:48;;;;;;;;;;;15.90;64.80;;;;;;5015215;28;42832;-80
2023/03/18 09:56:20;;;;;;;;;;;15.80;64.90;;;;;;5019808;28;42922;-80
2023/03/18 09:58:48;;;;;;;;;;;16.10;65.20;;;;;;5016944;28;43420;-80
2023/03/18 10:01:15;;;;;;;;;;;15.80;63.80;;;;;;5015811;28;43362;-83
2023/03/18 10:03:45;;;;;;;;;;;16.00;64.70;;;;;;5011829;28;44497;-82
2023/03/18 10:06:15;;;;;;;;;;;16.10;64.40;;;;;;5003876;28;42955;-82
2023/03/18 10:08:47;;;;;;;;;;;16.20;63.20;;;;;;5004638;28;44403;-85
2023/03/18 10:11:34;;;;;;;;;;;16.10;62.90;;;;;;5004946;28;42909;-82
2023/03/18 10:14:18;;;;;;;;;;;16.50;63.20;;;;;;5005770;28;43413;-85
2023/03/18 10:16:59;;;;;;;;;;;16.00;63.40;;;;;;5006023;28;42949;-82
2023/03/18 10:19:24;;;;;;;;;;;16.30;63.30;;;;;;5007475;28;43502;-83
2023/03/18 10:21:53;;;;;;;;;;;16.20;64.20;;;;;;5020207;28;42891;-81
2023/03/18 10:24:25;;;;;;;;;;;16.20;62.90;;;;;;5015744;28;43489;-85
2023/03/18 10:27:02;;;;;;;;;;;15.80;63.10;;;;;;5013086;28;42830;-82
2023/03/18 10:29:27;;;;;;;;;;;16.00;63.00;;;;;;5004076;28;44737;-82
2023/03/18 10:32:17;;;;;;;;;;;16.00;64.70;;;;;;5005203;28;42989;-82
2023/03/18 10:34:55;;;;;;;;;;;16.10;63.50;;;;;;5005511;28;42946;-82
2023/03/18 10:37:35;;;;;;;;;;;16.30;63.40;;;;;;5019889;28;42980;-90
2023/03/18 10:40:01;;;;;;;;;;;16.10;62.70;;;;;;5012903;28;42977;-82
2023/03/18 10:42:28;;;;;;;;;;;16.30;64.30;;;;;;5014535;28;43016;-83
2023/03/18 10:45:07;;;;;;;;;;;16.20;64.20;;;;;;5014277;28;43027;-86
2023/03/18 10:47:35;;;;;;;;;;;15.80;64.50;;;;;;4999359;28;43039;-81
2023/03/18 10:50:20;;;;;;;;;;;15.90;65.00;;;;;;5014255;28;43476;-81
2023/03/18 10:52:55;;;;;;;;;;;16.00;62.20;;;;;;5012617;28;43016;-80
2023/03/18 10:55:23;;;;;;;;;;;15.80;62.90;;;;;;5017601;28;42971;-81
2023/03/18 10:57:49;;;;;;;;;;;15.90;64.00;;;;;;5013061;28;43041;-87
2023/03/18 11:00:27;;;;;;;;;;;15.90;63.50;;;;;;5006921;28;44527;-85
2023/03/18 11:02:53;;;;;;;;;;;16.10;63.10;;;;;;5024680;28;42969;-81
2023/03/18 11:05:23;;;;;;;;;;;16.00;64.50;;;;;;5024846;28;42944;-88
2023/03/18 11:07:59;;;;;;;;;;;16.00;63.50;;;;;;5013647;28;42931;-81
2023/03/18 11:10:27;;;;;;;;;;;15.80;64.10;;;;;;5005783;28;43495;-87
2023/03/18 11:12:54;;;;;;;;;;;15.90;63.60;;;;;;5001880;28;42897;-88
2023/03/18 11:15:20;;;;;;;;;;;15.90;63.90;;;;;;5022301;28;43078;-82
2023/03/18 11:17:47;;;;;;;;;;;15.80;64.30;;;;;;5011504;28;42993;-85
2023/03/18 11:20:13;;;;;;;;;;;15.90;64.40;;;;;;5026589;28;43574;-87
2023/03/18 11:22:43;;;;;;;;;;;16.10;57.70;;;;;;5027875;28;43025;-82
2023/03/18 11:25:13;;;;;;;;;;;16.30;58.30;;;;;;5026207;28;43533;-81
2023/03/18 11:27:40;;;;;;;;;;;16.30;57.20;;;;;;5014976;28;43025;-81
2023/03/18 11:30:26;;;;;;;;;;;16.40;58.00;;;;;;4990139;28;43789;-81
2023/03/18 11:32:53;;;;;;;;;;;16.40;57.70;;;;;;4990075;28;43157;-81
2023/03/18 11:35:24;;;;;;;;;;;16.50;57.80;;;;;;5009312;28;43454;-83
2023/03/18 11:37:49;;;;;;;;;;;16.30;56.60;;;;;;5011395;28;42846;-83
2023/03/18 11:40:17;;;;;;;;;;;16.50;57.00;;;;;;5015910;28;42886;-79
2023/03/18 11:42:44;;;;;;;;;;;16.40;57.40;;;;;;5021415;28;42960;-85
2023/03/18 11:45:30;;;;;;;;;;;16.60;57.70;;;;;;5008105;28;42937;-79
2023/03/18 11:47:56;;;;;;;;;;;16.40;57.00;;;;;;5007916;28;42973;-79
2023/03/18 11:50:24;;;;;;;;;;;16.30;58.10;;;;;;5017917;28;42987;-78
2023/03/18 11:53:06;;;;;;;;;;;16.60;57.80;;;;;;5008083;28;42927;-79
2023/03/18 11:55:32;;;;;;;;;;;16.30;57.50;;;;;;5007964;28;43039;-78
2023/03/18 11:57:57;;;;;;;;;;;16.50;57.60;;;;;;5008187;28;42993;-79
2023/03/18 12:00:26;;;;;;;;;;;16.50;57.70;;;;;;5008024;28;42917;-80
2023/03/18 12:02:52;;;;;;;;;;;16.40;56.90;;;;;;5008142;28;42906;-79
2023/03/18 12:05:20;;;;;;;;;;;16.30;57.80;;;;;;5008096;28;42799;-80
2023/03/18 12:08:04;;;;;;;;;;;16.20;56.90;;;;;;5007678;28;42838;-80
2023/03/18 12:10:33;;;;;;;;;;;16.10;56.70;;;;;;5007558;28;43096;-80
2023/03/18 12:13:04;;;;;;;;;;;16.20;57.70;;;;;;4989819;28;42804;-80
2023/03/18 12:15:33;;;;;;;;;;;16.20;56.80;;;;;;5007871;28;43702;-80
2023/03/18 12:18:01;;;;;;;;;;;16.20;56.70;;;;;;5008021;28;42826;-80
2023/03/18 12:20:45;;;;;;;;;;;16.20;56.60;;;;;;5007548;28;43531;-80
2023/03/18 12:23:28;;;;;;;;;;;16.30;56.80;;;;;;5007713;28;42768;-82
2023/03/18 12:25:54;;;;;;;;;;;16.20;57.00;;;;;;5019836;28;44027;-80
2023/03/18 12:28:55;;;;;;;;;;;16.10;57.40;;;;;;5014427;28;42982;-78
2023/03/18 12:31:21;;;;;;;;;;;16.10;56.90;;;;;;4965200;28;43477;-74
2023/03/18 12:33:55;;;;;;;;;;;16.20;57.90;;;;;;4965748;28;42955;-75
2023/03/18 12:36:43;;;;;;;;;;;16.50;56.90;;;;;;4965081;28;44794;-75
2023/03/18 12:39:27;;;;;;;;;;;16.50;57.90;;;;;;4964625;28;43033;-74
2023/03/18 12:42:12;;;;;;;;;;;16.50;56.80;;;;;;4965311;28;43609;-76
2023/03/18 12:44:43;;;;;;;;;;;16.50;57.30;;;;;;4969942;28;42979;-75
2023/03/18 12:47:15;;;;;;;;;;;16.50;56.70;;;;;;4980923;28;43736;-75
2023/03/18 12:49:44;;;;;;;;;;;16.60;56.60;;;;;;4965228;28;43030;-76
2023/03/18 12:52:23;;;;;;;;;;;16.60;57.50;;;;;;4984661;28;44311;-75
2023/03/18 12:54:54;;;;;;;;;;;16.60;57.60;;;;;;4983959;28;42967;-75
2023/03/18 12:57:31;;;;;;;;;;;16.70;57.50;;;;;;4984877;28;43788;-75
2023/03/18 13:00:00;;;;;;;;;;;16.70;56.50;;;;;;4984477;28;42983;-75
2023/03/18 13:02:35;;;;;;;;;;;16.70;57.50;;;;;;4982399;28;43084;-76
2023/03/18 13:05:04;;;;;;;;;;;16.60;56.50;;;;;;4998522;28;42933;-76
2023/03/18 13:07:46;;;;;;;;;;;16.80;57.50;;;;;;5018452;28;43814;-75
2023/03/18 13:10:18;;;;;;;;;;;16.80;56.60;;;;;;5009376;28;42957;-75
2023/03/18 13:12:46;;;;;;;;;;;16.70;56.50;;;;;;5024754;28;42989;-75
2023/03/18 13:15:26;;;;;;;;;;;16.70;57.40;;;;;;5025775;28;42977;-76
2023/03/18 13:17:55;;;;;;;;;;;16.80;56.50;;;;;;5025593;28;42967;-75
2023/03/18 13:20:25;;;;;;;;;;;16.70;57.50;;;;;;5025312;28;42929;-76
2023/03/18 13:23:10;;;;;;;;;;;16.80;57.40;;;;;;5023051;28;43652;-78
2023/03/18 13:25:35;;;;;;;;;;;16.90;56.50;;;;;;5025857;28;42915;-78
2023/03/18 13:28:07;;;;;;;;;;;16.90;57.50;;;;;;5024082;28;43444;-78
2023/03/18 13:30:33;;;;;;;;;;;16.80;56.60;;;;;;5025844;28;42980;-79
2023/03/18 13:33:05;;;;;;;;;;;16.90;57.60;;;;;;5007704;28;44186;-79
2023/03/18 13:35:43;;;;;;;;;;;16.80;57.10;;;;;;5025820;28;42961;-79
2023/03/18 13:38:09;;;;;;;;;;;16.90;56.70;;;;;;5025466;28;43547;-79
2023/03/18 13:40:45;;;;;;;;;;;16.80;57.50;;;;;;4997992;28;42980;-78
2023/03/18 13:43:14;;;;;;;;;;;16.70;56.60;;;;;;5005077;28;44539;-78
2023/03/18 13:45:41;;;;;;;;;;;16.80;57.70;;;;;;5005264;28;42914;-78
2023/03/18 13:48:09;;;;;;;;;;;17.00;57.60;;;;;;5005271;28;43480;-78
2023/03/18 13:50:38;;;;;;;;;;;16.80;57.60;;;;;;5007568;28;43048;-79
2023/03/18 13:53:05;;;;;;;;;;;16.90;57.70;;;;;;5010033;28;43450;-79
2023/03/18 13:55:52;;;;;;;;;;;16.50;57.50;;;;;;5006067;28;42938;-79
2023/03/18 13:58:18;;;;;;;;;;;16.70;56.60;;;;;;5023732;28;43511;-79
2023/03/18 14:00:44;;;;;;;;;;;16.90;57.70;;;;;;5024116;28;42888;-80
2023/03/18 14:03:14;;;;;;;;;;;16.80;57.60;;;;;;5025011;28;43681;-80
2023/03/18 14:05:41;;;;;;;;;;;16.70;56.60;;;;;;5025165;28;42984;-80
2023/03/18 14:08:27;;;;;;;;;;;16.80;57.60;;;;;;5022912;28;43540;-79
2023/03/18 14:11:15;;;;;;;;;;;16.90;56.70;;;;;;5024932;28;43019;-79
2023/03/18 14:13:41;;;;;;;;;;;16.90;56.70;;;;;;5005085;28;43658;-79
2023/03/18 14:16:11;;;;;;;;;;;16.80;57.70;;;;;;5025318;28;42912;-80
2023/03/18 14:18:37;;;;;;;;;;;16.80;56.70;;;;;;5010969;28;43545;-79
2023/03/18 14:21:04;;;;;;;;;;;16.80;57.80;;;;;;5025273;28;42902;-79
2023/03/18 14:23:33;;;;;;;;;;;16.80;57.60;;;;;;5006302;28;44868;-80
2023/03/18 14:26:00;;;;;;;;;;;16.70;56.70;;;;;;5024153;28;43059;-77